createdAt,value
2022-12-05T00:04:23.999Z,92.01
2022-12-05T00:14:28.309Z,92.27
2022-12-05T00:24:31.358Z,92.34
2022-12-05T00:34:36.193Z,91.79
2022-12-05T00:44:39.720Z,91.06
2022-12-05T00:54:44.614Z,90.78
2022-12-05T01:04:47.768Z,90.23
2022-12-05T01:14:52.158Z,89.76
2022-12-05T01:24:55.205Z,89.24
2022-12-05T01:34:59.726Z,89.19
2022-12-05T01:45:09.288Z,88.69
2022-12-05T01:55:17.928Z,88.60
2022-12-05T02:05:24.287Z,87.82
2022-12-05T02:15:43.067Z,87.79
2022-12-05T02:26:16.783Z,87.38
2022-12-05T02:36:27.009Z,87.34
2022-12-05T02:46:33.484Z,87.53
2022-12-05T02:56:39.500Z,88.06
2022-12-05T03:06:46.811Z,87.79
2022-12-05T03:16:54.113Z,87.46
2022-12-05T03:27:08.497Z,87.80
2022-12-05T03:37:19.473Z,87.32
2022-12-05T03:47:27.870Z,87.94
2022-12-05T03:57:36.884Z,88.25
2022-12-05T04:07:41.844Z,88.80
2022-12-05T04:17:53.790Z,88.51
2022-12-05T04:28:06.911Z,88.41
2022-12-05T04:38:14.929Z,87.96
2022-12-05T04:48:19.358Z,88.30
2022-12-05T04:58:25.559Z,88.38
2022-12-05T05:08:30.370Z,88.33
2022-12-05T05:18:34.960Z,88.32
2022-12-05T05:28:38.103Z,88.72
2022-12-05T05:38:44.103Z,88.71
2022-12-05T05:48:47.506Z,87.42
2022-12-05T05:58:56.765Z,87.55
2022-12-05T06:08:59.888Z,86.95
2022-12-05T06:19:04.382Z,86.92
2022-12-05T06:29:07.327Z,87.39
2022-12-05T06:39:11.419Z,88.14
2022-12-05T06:49:14.517Z,88.27
2022-12-05T06:59:18.906Z,88.67
2022-12-05T07:09:44.840Z,88.06
2022-12-05T07:19:50.526Z,88.14
2022-12-05T07:29:54.051Z,88.13
2022-12-05T07:39:58.803Z,88.11
2022-12-05T07:50:02.078Z,88.13
2022-12-05T08:00:08.448Z,88.54
2022-12-05T08:10:15.948Z,89.05
2022-12-05T08:20:20.295Z,89.08
2022-12-05T08:30:23.079Z,89.82
2022-12-05T08:40:27.491Z,89.76
2022-12-05T08:50:30.537Z,89.86
2022-12-05T09:00:34.990Z,90.20
2022-12-05T09:10:38.960Z,90.48
2022-12-05T09:20:43.281Z,89.79
2022-12-05T09:30:46.206Z,90.55
2022-12-05T09:40:58.848Z,91.34
2022-12-05T09:51:04.412Z,91.41
2022-12-05T10:01:22.744Z,91.74
2022-12-05T10:11:35.567Z,91.42
2022-12-05T10:21:48.658Z,90.85
2022-12-05T10:31:58.887Z,90.55
2022-12-05T10:42:04.057Z,91.25
2022-12-05T10:52:07.546Z,91.44
2022-12-05T11:02:23.272Z,90.52
2022-12-05T11:12:30.180Z,90.68
2022-12-05T11:22:36.620Z,90.89
2022-12-05T11:32:40.806Z,90.38
2022-12-05T11:43:03.019Z,91.00
2022-12-05T11:53:22.547Z,91.98
2022-12-05T12:03:51.647Z,91.92
2022-12-05T12:14:02.529Z,92.37
2022-12-05T12:24:18.763Z,91.93
2022-12-05T12:34:46.008Z,91.98
2022-12-05T12:45:18.698Z,91.65
2022-12-05T12:55:26.065Z,91.82
2022-12-05T13:05:35.972Z,90.95
2022-12-05T13:15:41.984Z,91.72
2022-12-05T13:25:48.572Z,91.41
2022-12-05T13:36:17.038Z,90.77
2022-12-05T13:46:28.091Z,91.78
2022-12-05T13:56:50.582Z,91.12
2022-12-05T14:06:59.598Z,91.64
2022-12-05T14:17:04.489Z,91.41
2022-12-05T14:27:17.965Z,92.29
2022-12-05T14:37:29.097Z,91.52
2022-12-05T14:47:35.542Z,91.10
2022-12-05T14:57:48.426Z,90.75
2022-12-05T15:07:55.112Z,91.31
2022-12-05T15:18:05.111Z,91.11
2022-12-05T15:28:20.699Z,92.00
2022-12-05T15:38:28.550Z,91.38
2022-12-05T15:48:32.786Z,91.36
2022-12-05T15:58:40.916Z,91.36
2022-12-05T16:08:49.511Z,90.71
2022-12-05T16:18:56.466Z,91.38
2022-12-05T16:29:02.246Z,91.49
2022-12-05T16:39:19.162Z,91.85
2022-12-05T16:49:40.057Z,91.27
2022-12-05T16:59:49.685Z,91.01
2022-12-05T17:09:54.271Z,91.59
2022-12-05T17:19:57.271Z,91.11
2022-12-05T17:30:01.698Z,91.56
2022-12-05T18:04:10.804Z,88.97
2022-12-05T18:14:14.103Z,89.39
2022-12-05T18:24:18.538Z,89.09
2022-12-05T18:34:21.534Z,89.55
2022-12-05T18:44:25.593Z,89.15
2022-12-05T18:54:28.561Z,90.02
2022-12-05T19:04:32.851Z,90.05
2022-12-05T19:14:35.799Z,89.59
2022-12-05T19:24:40.444Z,88.73
2022-12-05T19:34:43.911Z,89.72
2022-12-05T19:44:49.699Z,89.66
2022-12-05T19:54:52.833Z,90.12
2022-12-05T20:04:56.925Z,89.37
2022-12-05T20:14:59.942Z,89.48
2022-12-05T20:25:04.611Z,93.09
2022-12-05T20:35:07.967Z,89.86
2022-12-05T20:45:12.796Z,90.10
2022-12-05T20:55:16.081Z,90.07
2022-12-05T21:05:20.493Z,90.11
2022-12-05T21:15:23.351Z,90.72
2022-12-05T21:25:27.826Z,90.24
2022-12-05T21:35:30.896Z,90.24
2022-12-05T21:45:43.359Z,89.89
2022-12-05T21:55:48.150Z,89.79
2022-12-05T22:06:00.023Z,89.88
2022-12-05T22:16:04.673Z,90.21
2022-12-05T22:26:11.102Z,89.91
2022-12-05T22:36:16.523Z,89.94
2022-12-05T22:46:22.521Z,90.24
2022-12-05T22:56:27.559Z,89.64
2022-12-05T23:06:33.486Z,89.62
2022-12-05T23:16:36.824Z,88.93
2022-12-05T23:26:43.312Z,89.86
2022-12-05T23:36:46.324Z,89.03
2022-12-05T23:46:50.967Z,89.24
2022-12-05T23:56:55.113Z,89.80
